createdAt,value
2023-12-29T00:02:10.056Z,99936.81
2023-12-29T00:04:40.183Z,99940.28
2023-12-29T00:07:08.969Z,99949.50
2023-12-29T00:09:42.836Z,99941.28
2023-12-29T00:12:12.088Z,99960.00
2023-12-29T00:14:42.387Z,99965.28
2023-12-29T00:17:11.183Z,99962.13
2023-12-29T00:19:41.397Z,99965.56
2023-12-29T00:22:10.318Z,99962.31
2023-12-29T00:24:41.054Z,99957.34
2023-12-29T00:27:09.924Z,99955.75
2023-12-29T00:29:38.757Z,99947.38
2023-12-29T00:32:08.236Z,99945.88
2023-12-29T00:34:38.926Z,99946.63
2023-12-29T00:37:10.542Z,99942.16
2023-12-29T00:39:41.590Z,99942.16
2023-12-29T00:42:10.532Z,99951.19
2023-12-29T00:44:39.264Z,99952.09
2023-12-29T00:47:08.144Z,99947.78
2023-12-29T00:49:40.606Z,99937.47
2023-12-29T00:52:10.939Z,99923.25
2023-12-29T00:54:40.007Z,99926.16
2023-12-29T00:57:08.862Z,99929.50
2023-12-29T00:59:41.464Z,99923.06
2023-12-29T01:02:10.363Z,99913.84
2023-12-29T01:04:41.016Z,99918.03
2023-12-29T01:07:11.763Z,99923.06
2023-12-29T01:09:41.495Z,99925.47
2023-12-29T01:12:10.425Z,99928.88
2023-12-29T01:14:39.348Z,99922.19
2023-12-29T01:17:08.863Z,99926.59
2023-12-29T01:19:37.854Z,99922.19
2023-12-29T01:22:06.860Z,99922.25
2023-12-29T01:24:43.108Z,99917.16
2023-12-29T01:27:15.238Z,99913.75
2023-12-29T01:29:44.100Z,99917.34
2023-12-29T01:32:12.973Z,99920.84
2023-12-29T01:34:41.977Z,99920.00
2023-12-29T01:37:11.147Z,99912.44
2023-12-29T01:39:42.111Z,99908.47
2023-12-29T01:42:12.672Z,99917.03
2023-12-29T01:44:41.597Z,99915.34
2023-12-29T01:47:17.571Z,99912.13
2023-12-29T01:49:48.320Z,99919.47
2023-12-29T01:52:19.178Z,99908.47
2023-12-29T01:54:54.546Z,99901.63
2023-12-29T01:57:24.801Z,99900.50
2023-12-29T01:59:54.081Z,99910.06
2023-12-29T02:02:23.000Z,99920.06
2023-12-29T02:04:52.106Z,99907.47
2023-12-29T02:07:22.642Z,99906.66
2023-12-29T02:09:53.280Z,99910.06
2023-12-29T02:12:22.862Z,99914.31
2023-12-29T02:14:51.633Z,99912.81
2023-12-29T02:17:29.153Z,99910.06
2023-12-29T02:19:58.396Z,99910.00
2023-12-29T02:22:27.302Z,99909.88
2023-12-29T02:24:57.989Z,99900.75
2023-12-29T02:27:37.851Z,99901.84
2023-12-29T02:30:13.833Z,99909.59
2023-12-29T02:32:45.443Z,99910.41
2023-12-29T02:35:17.679Z,99908.56
2023-12-29T02:37:47.122Z,99906.88
2023-12-29T02:40:18.370Z,99906.00
2023-12-29T02:42:49.139Z,99902.63
2023-12-29T02:45:18.976Z,99903.34
2023-12-29T02:47:47.773Z,99903.44
2023-12-29T02:50:18.245Z,99889.41
2023-12-29T02:52:47.143Z,99898.13
2023-12-29T02:55:17.517Z,99884.97
2023-12-29T02:57:46.747Z,99884.03
2023-12-29T03:00:16.244Z,99876.59
2023-12-29T03:02:45.408Z,99864.81
2023-12-29T03:05:14.489Z,99857.09
2023-12-29T03:07:43.319Z,99866.47
2023-12-29T03:10:12.671Z,99860.63
2023-12-29T03:12:43.083Z,99879.06
2023-12-29T03:15:12.996Z,99874.25
2023-12-29T03:17:41.834Z,99874.38
2023-12-29T03:20:11.868Z,99864.16
2023-12-29T03:22:40.931Z,99867.59
2023-12-29T03:25:10.223Z,99866.72
2023-12-29T03:27:39.695Z,99865.16
2023-12-29T03:30:11.268Z,99867.88
2023-12-29T03:32:40.191Z,99854.47
2023-12-29T03:35:09.376Z,99846.16
2023-12-29T03:37:38.226Z,99850.38
2023-12-29T03:40:08.390Z,99788.66
2023-12-29T03:42:37.290Z,99843.66
2023-12-29T03:45:06.627Z,99846.28
2023-12-29T03:47:37.479Z,99844.50
2023-12-29T03:50:08.104Z,99832.50
2023-12-29T03:52:37.177Z,99835.81
2023-12-29T03:55:07.748Z,99827.38
2023-12-29T03:57:36.833Z,99843.38
2023-12-29T04:00:07.809Z,99853.44
2023-12-29T04:02:42.737Z,99834.81
2023-12-29T04:05:14.573Z,99839.25
2023-12-29T04:07:43.387Z,99838.47
2023-12-29T04:10:12.219Z,99837.63
2023-12-29T04:12:41.177Z,99838.38
2023-12-29T04:15:10.961Z,99844.28
2023-12-29T04:17:39.959Z,99837.63
2023-12-29T04:20:11.077Z,99841.03
2023-12-29T04:22:39.880Z,99850.47
2023-12-29T04:25:10.381Z,99830.31
2023-12-29T04:27:39.304Z,99836.38
2023-12-29T04:30:09.322Z,99830.56
2023-12-29T04:32:38.052Z,99833.19
2023-12-29T04:35:08.119Z,99842.53
2023-12-29T04:37:38.502Z,99858.47
2023-12-29T04:40:08.670Z,99846.78
2023-12-29T04:42:37.580Z,99833.19
2023-12-29T04:45:07.393Z,99828.19
2023-12-29T04:47:36.395Z,99823.16
2023-12-29T04:50:07.216Z,99830.91
2023-12-29T04:52:38.878Z,99821.56
2023-12-29T04:55:08.163Z,99808.03
2023-12-29T04:57:36.986Z,99811.38
2023-12-29T05:00:06.994Z,99824.59
2023-12-29T05:02:35.973Z,99832.97
2023-12-29T05:05:04.868Z,99837.06
2023-12-29T05:07:33.788Z,99833.59
2023-12-29T05:10:04.683Z,99827.53
2023-12-29T05:12:33.536Z,99830.03
2023-12-29T05:15:02.307Z,99840.09
2023-12-29T05:17:31.729Z,99840.97
2023-12-29T05:20:00.552Z,99843.56
2023-12-29T05:22:29.422Z,99850.34
2023-12-29T05:25:01.569Z,99852.66
2023-12-29T05:27:31.968Z,99847.41
2023-12-29T05:30:00.767Z,99858.47
2023-12-29T05:32:29.598Z,99853.47
2023-12-29T05:34:58.610Z,99855.13
2023-12-29T05:37:27.378Z,99877.09
2023-12-29T05:39:56.235Z,99873.66
2023-12-29T05:42:25.069Z,99861.03
2023-12-29T05:44:55.237Z,99866.25
2023-12-29T05:47:24.164Z,99870.53
2023-12-29T05:49:53.000Z,99879.84
2023-12-29T05:52:21.805Z,99875.72
2023-12-29T05:54:50.802Z,99879.09
2023-12-29T05:57:20.129Z,99862.94
2023-12-29T05:59:48.937Z,99865.50
2023-12-29T06:02:19.472Z,99869.88
2023-12-29T06:04:48.650Z,99876.66
2023-12-29T06:07:17.461Z,99869.13
2023-12-29T06:09:46.244Z,99870.00
2023-12-29T06:12:16.835Z,99882.53
2023-12-29T06:14:45.538Z,99876.69
2023-12-29T06:17:14.685Z,99873.19
2023-12-29T06:19:45.078Z,99874.81
2023-12-29T06:22:15.903Z,99873.13
2023-12-29T06:24:44.697Z,99865.50
2023-12-29T06:27:15.007Z,99881.38
2023-12-29T06:29:43.941Z,99870.38
2023-12-29T06:32:12.865Z,99871.38
2023-12-29T06:34:43.223Z,99861.03
2023-12-29T06:37:13.576Z,99862.34
2023-12-29T06:39:42.494Z,99871.56
2023-12-29T06:42:11.227Z,99874.25
2023-12-29T06:44:40.099Z,99880.91
2023-12-29T06:47:08.885Z,99880.91
2023-12-29T06:49:38.003Z,99862.84
2023-12-29T06:52:07.420Z,99868.69
2023-12-29T06:54:37.707Z,99855.19
2023-12-29T06:57:06.974Z,99842.56
2023-12-29T06:59:35.860Z,99854.53
2023-12-29T07:02:05.705Z,99870.31
2023-12-29T07:04:36.074Z,99882.72
2023-12-29T07:07:05.014Z,99899.56
2023-12-29T07:09:33.934Z,99906.59
2023-12-29T07:12:04.301Z,99914.56
2023-12-29T07:14:33.091Z,99904.16
2023-12-29T07:17:01.737Z,99905.19
2023-12-29T07:19:38.702Z,99893.56
2023-12-29T07:22:09.374Z,99893.09
2023-12-29T07:24:39.054Z,99893.75
2023-12-29T07:27:10.005Z,99892.38
2023-12-29T07:29:39.007Z,99902.72
2023-12-29T07:32:08.413Z,99890.75
2023-12-29T07:34:37.488Z,99897.53
2023-12-29T07:37:06.469Z,99887.28
2023-12-29T07:39:35.806Z,99893.19
2023-12-29T07:42:05.511Z,99876.19
2023-12-29T07:44:37.100Z,99863.66
2023-12-29T07:47:06.227Z,99869.59
2023-12-29T07:49:34.969Z,99865.56
2023-12-29T07:52:04.008Z,99882.72
2023-12-29T07:54:32.728Z,99883.63
2023-12-29T07:57:01.509Z,99868.78
2023-12-29T07:59:30.265Z,99874.81
2023-12-29T08:02:00.425Z,99880.00
2023-12-29T08:04:29.264Z,99894.53
2023-12-29T08:06:57.989Z,99890.47
2023-12-29T08:09:28.027Z,99889.66
2023-12-29T08:11:56.665Z,99880.50
2023-12-29T08:14:25.896Z,99887.69
2023-12-29T08:16:54.563Z,99888.16
2023-12-29T08:19:24.902Z,99890.34
2023-12-29T08:21:54.230Z,99883.94
2023-12-29T08:24:22.956Z,99889.38
2023-12-29T08:26:51.860Z,99881.31
2023-12-29T08:29:21.254Z,99887.50
2023-12-29T08:31:50.139Z,99889.47
2023-12-29T08:34:20.456Z,99883.69
2023-12-29T08:36:51.531Z,99894.53
2023-12-29T08:39:20.335Z,99902.28
2023-12-29T08:41:51.059Z,99902.59
2023-12-29T08:44:19.983Z,99897.53
2023-12-29T08:46:48.715Z,99896.00
2023-12-29T08:49:17.550Z,99907.16
2023-12-29T08:51:46.351Z,99905.41
2023-12-29T08:54:16.586Z,99905.50
2023-12-29T08:56:45.437Z,99902.78
2023-12-29T08:59:14.577Z,99889.66
2023-12-29T09:01:43.484Z,99894.59
2023-12-29T09:04:12.386Z,99899.06
2023-12-29T09:06:41.534Z,99888.38
2023-12-29T09:09:14.009Z,99870.06
2023-12-29T09:11:44.740Z,99877.34
2023-12-29T09:14:13.592Z,99883.50
2023-12-29T09:16:44.888Z,99896.44
2023-12-29T09:19:22.769Z,99894.13
2023-12-29T09:22:00.314Z,99888.41
2023-12-29T09:24:29.146Z,99897.97
2023-12-29T09:26:59.370Z,99884.50
2023-12-29T09:29:28.182Z,99896.47
2023-12-29T09:31:56.865Z,99890.38
2023-12-29T09:34:25.899Z,99879.28
2023-12-29T09:36:54.679Z,99874.19
2023-12-29T09:39:23.513Z,99882.84
2023-12-29T09:41:55.007Z,99871.81
2023-12-29T09:44:25.411Z,99865.16
2023-12-29T09:46:57.698Z,99862.00
2023-12-29T09:49:28.098Z,99866.28
2023-12-29T09:52:00.079Z,99866.16
2023-12-29T09:54:28.965Z,99869.41
2023-12-29T09:56:57.759Z,99859.28
2023-12-29T09:59:29.235Z,99857.66
2023-12-29T10:01:58.912Z,99863.63
2023-12-29T10:04:27.823Z,99867.97
2023-12-29T10:06:59.666Z,99860.34
2023-12-29T10:09:29.694Z,99850.25
2023-12-29T10:11:59.734Z,99872.22
2023-12-29T10:14:38.841Z,99867.88
2023-12-29T10:17:28.196Z,99858.53
2023-12-29T10:20:08.499Z,99852.50
2023-12-29T10:22:46.315Z,99840.38
2023-12-29T10:25:15.736Z,99847.25
2023-12-29T10:27:44.549Z,99857.31
2023-12-29T10:30:24.834Z,99858.19
2023-12-29T10:32:57.968Z,99848.78
2023-12-29T10:35:28.631Z,99835.06
2023-12-29T10:38:11.148Z,99849.53
2023-12-29T10:40:40.432Z,99848.84
2023-12-29T10:43:11.030Z,99837.91
2023-12-29T10:45:41.876Z,99831.28
2023-12-29T10:48:11.157Z,99817.88
2023-12-29T10:50:47.151Z,99825.63
2023-12-29T10:53:18.871Z,99816.34
2023-12-29T10:55:47.930Z,99813.72
2023-12-29T10:58:20.886Z,99817.13
2023-12-29T11:00:51.275Z,99812.06
2023-12-29T11:03:20.257Z,99812.84
2023-12-29T11:05:49.124Z,99805.13
2023-12-29T11:08:19.285Z,99800.06
2023-12-29T11:10:50.384Z,99803.47
2023-12-29T11:13:20.803Z,99789.91
2023-12-29T11:15:53.603Z,99803.44
2023-12-29T11:18:22.489Z,99790.69
2023-12-29T11:20:51.959Z,99788.31
2023-12-29T11:23:21.394Z,99795.97
2023-12-29T11:25:50.790Z,99791.75
2023-12-29T11:28:21.588Z,99783.41
2023-12-29T11:30:53.085Z,99779.25
2023-12-29T11:33:28.517Z,99769.16
2023-12-29T11:36:03.134Z,99768.34
2023-12-29T11:38:46.068Z,99766.59
2023-12-29T11:41:21.864Z,99761.47
2023-12-29T11:44:00.015Z,99755.56
2023-12-29T11:46:44.841Z,99760.72
2023-12-29T11:49:13.925Z,99767.59
2023-12-29T11:51:45.159Z,99768.47
2023-12-29T11:54:24.781Z,99764.25
2023-12-29T11:56:54.704Z,99765.16
2023-12-29T11:59:25.796Z,99755.97
2023-12-29T12:01:57.988Z,99753.47
2023-12-29T12:04:43.021Z,99767.00
2023-12-29T12:07:18.597Z,99758.72
2023-12-29T12:09:50.831Z,99760.53
2023-12-29T12:12:45.615Z,99765.63
2023-12-29T12:15:36.100Z,99759.13
2023-12-29T12:18:10.937Z,99739.94
2023-12-29T12:20:41.293Z,99725.75
2023-12-29T12:23:15.493Z,99730.38
2023-12-29T12:25:45.480Z,99736.47
2023-12-29T12:28:17.128Z,99736.53
2023-12-29T12:30:46.096Z,99741.72
2023-12-29T12:33:16.961Z,99736.75
2023-12-29T12:35:47.986Z,99735.94
2023-12-29T12:38:22.910Z,99730.00
2023-12-29T12:40:51.687Z,99728.28
2023-12-29T12:43:20.600Z,99718.94
2023-12-29T12:45:55.649Z,99723.09
2023-12-29T12:48:35.797Z,99718.84
2023-12-29T12:51:05.039Z,99712.03
2023-12-29T12:53:34.021Z,99704.41
2023-12-29T12:56:04.577Z,99721.38
2023-12-29T12:58:33.626Z,99721.34
2023-12-29T13:01:05.836Z,99732.31
2023-12-29T13:03:40.056Z,99730.47
2023-12-29T13:06:09.853Z,99724.38
2023-12-29T13:08:43.332Z,99727.63
2023-12-29T13:11:14.435Z,99726.69
2023-12-29T13:13:45.098Z,99722.34
2023-12-29T13:16:15.307Z,99718.00
2023-12-29T13:18:47.890Z,99726.28
2023-12-29T13:21:20.666Z,99733.00
2023-12-29T13:23:49.947Z,99732.03
2023-12-29T13:26:22.452Z,99721.78
2023-12-29T13:28:51.343Z,99715.78
2023-12-29T13:33:55.253Z,99723.28
2023-12-29T13:36:36.012Z,99729.97
2023-12-29T13:39:12.087Z,99733.28
2023-12-29T13:41:41.457Z,99723.91
2023-12-29T13:44:11.941Z,99730.63
2023-12-29T13:46:41.221Z,99731.50
2023-12-29T13:49:12.514Z,99723.00
2023-12-29T13:51:41.450Z,99724.69
2023-12-29T13:54:10.857Z,99735.59
2023-12-29T13:56:40.177Z,99734.84
2023-12-29T13:59:08.928Z,99734.78
2023-12-29T14:01:39.405Z,99729.69
2023-12-29T14:04:14.509Z,99722.91
2023-12-29T14:06:46.189Z,99719.47
2023-12-29T14:09:19.304Z,99700.63
2023-12-29T14:11:49.073Z,99730.34
2023-12-29T14:14:24.744Z,99735.41
2023-12-29T14:16:54.400Z,99732.84
2023-12-29T14:19:25.097Z,99729.41
2023-12-29T14:21:56.919Z,99745.53
2023-12-29T14:24:25.886Z,99749.75
2023-12-29T14:27:00.699Z,99745.50
2023-12-29T14:29:30.003Z,99744.63
2023-12-29T14:32:01.545Z,99748.00
2023-12-29T14:34:32.080Z,99752.19
2023-12-29T14:37:00.967Z,99752.19
2023-12-29T14:39:29.771Z,99739.44
2023-12-29T14:41:58.627Z,99741.94
2023-12-29T14:44:27.309Z,99740.13
2023-12-29T14:46:56.198Z,99730.72
2023-12-29T14:49:24.983Z,99729.75
2023-12-29T14:51:55.822Z,99730.44
2023-12-29T14:54:25.145Z,99728.56
2023-12-29T14:57:04.081Z,99717.44
2023-12-29T14:59:37.932Z,99718.09
2023-12-29T15:02:09.014Z,99731.44
2023-12-29T15:04:38.375Z,99732.03
2023-12-29T15:07:08.792Z,99739.44
2023-12-29T15:09:38.026Z,99740.94
2023-12-29T15:12:07.787Z,99740.75
2023-12-29T15:14:36.999Z,99746.38
2023-12-29T15:17:05.893Z,99743.78
2023-12-29T15:19:35.454Z,99733.53
2023-12-29T15:22:04.263Z,99741.06
2023-12-29T15:24:34.482Z,99744.16
2023-12-29T15:27:04.020Z,99744.69
2023-12-29T15:29:32.974Z,99747.88
2023-12-29T15:32:01.755Z,99736.03
2023-12-29T15:34:30.667Z,99745.25
2023-12-29T15:36:59.347Z,99742.47
2023-12-29T15:39:28.295Z,99750.78
2023-12-29T15:41:58.470Z,99743.84
2023-12-29T15:44:27.403Z,99738.72
2023-12-29T15:46:59.294Z,99738.78
2023-12-29T15:49:28.110Z,99726.94
2023-12-29T15:51:56.884Z,99726.75
2023-12-29T15:54:25.693Z,99725.78
2023-12-29T15:56:54.464Z,99731.72
2023-12-29T15:59:24.750Z,99738.44
2023-12-29T16:01:54.254Z,99734.94
2023-12-29T16:04:23.185Z,99737.47
2023-12-29T16:06:52.041Z,99736.56
2023-12-29T16:09:20.926Z,99737.47
2023-12-29T16:11:50.748Z,99744.09
2023-12-29T16:14:19.365Z,99738.31
2023-12-29T16:16:49.610Z,99736.69
2023-12-29T16:19:18.485Z,99731.91
2023-12-29T16:21:47.363Z,99742.03
2023-12-29T16:24:16.938Z,99747.16
2023-12-29T16:26:47.663Z,99745.53
2023-12-29T16:29:19.168Z,99743.88
2023-12-29T16:31:49.500Z,99740.47
2023-12-29T16:34:18.430Z,99749.84
2023-12-29T16:36:59.619Z,99729.66
2023-12-29T16:39:28.466Z,99734.69
2023-12-29T16:41:57.545Z,99715.19
2023-12-29T16:44:26.287Z,99745.88
2023-12-29T16:46:56.329Z,99745.94
2023-12-29T16:49:25.382Z,99744.28
2023-12-29T16:51:54.335Z,99744.31
2023-12-29T16:54:23.155Z,99745.13
2023-12-29T16:56:51.912Z,99742.66
2023-12-29T16:59:20.665Z,99735.94
2023-12-29T17:01:49.647Z,99722.56
2023-12-29T17:04:20.360Z,99728.50
2023-12-29T17:06:49.241Z,99731.94
2023-12-29T17:09:18.130Z,99725.91
2023-12-29T17:11:47.503Z,99732.72
2023-12-29T17:14:16.211Z,99728.53
2023-12-29T17:16:45.180Z,99719.25
2023-12-29T17:19:14.306Z,99735.25
2023-12-29T17:21:44.641Z,99732.72
2023-12-29T17:24:13.649Z,99737.84
2023-12-29T17:26:42.508Z,99736.22
2023-12-29T17:29:11.331Z,99737.06
2023-12-29T17:31:42.794Z,99726.09
2023-12-29T17:34:11.849Z,99724.50
2023-12-29T17:36:40.965Z,99722.06
2023-12-29T17:39:11.228Z,99723.72
2023-12-29T17:41:40.079Z,99729.56
2023-12-29T17:44:08.776Z,99728.72
2023-12-29T17:46:37.627Z,99730.34
2023-12-29T17:49:09.318Z,99729.56
2023-12-29T17:51:38.663Z,99726.31
2023-12-29T17:54:07.408Z,99726.22
2023-12-29T17:56:37.626Z,99722.84
2023-12-29T17:59:06.470Z,99720.38
2023-12-29T18:01:34.372Z,99722.94
2023-12-29T18:04:03.466Z,99729.72
2023-12-29T18:06:32.721Z,99729.63
2023-12-29T18:09:01.670Z,99726.22
2023-12-29T18:11:31.928Z,99725.44
2023-12-29T18:14:02.255Z,99726.28
2023-12-29T18:16:32.456Z,99727.91
2023-12-29T18:19:01.698Z,99744.81
2023-12-29T18:21:30.740Z,99745.72
2023-12-29T18:23:59.436Z,99751.56
2023-12-29T18:26:28.222Z,99751.56
2023-12-29T18:28:57.862Z,99751.56
2023-12-29T18:31:28.086Z,99739.75
2023-12-29T18:33:58.135Z,99746.47
2023-12-29T18:36:27.098Z,99754.00
2023-12-29T18:38:55.763Z,99759.13
2023-12-29T18:41:26.222Z,99757.34
2023-12-29T18:43:55.125Z,99758.19
2023-12-29T18:46:24.328Z,99757.31
2023-12-29T18:48:54.690Z,99748.88
2023-12-29T18:51:23.538Z,99748.84
2023-12-29T18:53:52.780Z,99747.91
2023-12-29T18:56:21.568Z,99741.94
2023-12-29T18:58:52.052Z,99748.50
2023-12-29T19:01:21.249Z,99740.75
2023-12-29T19:03:50.139Z,99746.47
2023-12-29T19:06:27.546Z,99725.28
2023-12-29T19:08:56.773Z,99741.44
2023-12-29T19:11:25.581Z,99740.56
2023-12-29T19:13:54.586Z,99739.75
2023-12-29T19:16:24.245Z,99734.69
2023-12-29T19:18:53.034Z,99736.25
2023-12-29T19:21:23.605Z,99740.44
2023-12-29T19:23:53.819Z,99730.25
2023-12-29T19:26:23.437Z,99738.63
2023-12-29T19:28:52.108Z,99736.00
2023-12-29T19:31:21.518Z,99739.22
2023-12-29T19:33:50.523Z,99733.97
2023-12-29T19:36:21.139Z,99736.38
2023-12-29T19:38:51.590Z,99736.31
2023-12-29T19:41:25.107Z,99736.28
2023-12-29T19:43:53.899Z,99739.41
2023-12-29T19:46:24.316Z,99734.03
2023-12-29T19:48:55.395Z,99733.06
2023-12-29T19:51:25.884Z,99716.66
2023-12-29T19:53:54.712Z,99736.06
2023-12-29T19:56:29.511Z,99726.53
2023-12-29T19:58:58.849Z,99722.88
2023-12-29T20:01:29.711Z,99733.91
2023-12-29T20:04:00.523Z,99730.59
2023-12-29T20:06:29.279Z,99722.19
2023-12-29T20:08:58.409Z,99719.63
2023-12-29T20:11:29.054Z,99724.53
2023-12-29T20:13:57.949Z,99717.59
2023-12-29T20:16:26.964Z,99721.09
2023-12-29T20:18:57.216Z,99715.78
2023-12-29T20:21:27.485Z,99719.06
2023-12-29T20:23:57.080Z,99718.16
2023-12-29T20:26:28.199Z,99715.66
2023-12-29T20:28:58.288Z,99716.66
2023-12-29T20:31:28.739Z,99710.69
2023-12-29T20:33:58.510Z,99679.13
2023-12-29T20:36:28.746Z,99701.41
2023-12-29T20:38:57.569Z,99701.47
2023-12-29T20:41:29.093Z,99699.00
2023-12-29T20:43:57.965Z,99703.16
2023-12-29T20:46:26.782Z,99704.00
2023-12-29T20:48:55.696Z,99710.69
2023-12-29T20:51:24.545Z,99706.31
2023-12-29T20:53:53.369Z,99709.63
2023-12-29T20:56:22.737Z,99713.78
2023-12-29T20:58:55.608Z,99709.50
2023-12-29T21:01:26.258Z,99713.34
2023-12-29T21:03:55.099Z,99708.06
2023-12-29T21:06:24.112Z,99713.09
2023-12-29T21:08:59.763Z,99705.34
2023-12-29T21:11:28.718Z,99702.66
2023-12-29T21:13:58.958Z,99706.00
2023-12-29T21:16:27.962Z,99694.25
2023-12-29T21:18:56.886Z,99698.53
2023-12-29T21:21:26.159Z,99699.41
2023-12-29T21:23:56.567Z,99702.75
2023-12-29T21:26:25.386Z,99706.00
2023-12-29T21:28:54.082Z,99697.53
2023-12-29T21:31:24.427Z,99699.31
2023-12-29T21:33:53.465Z,99701.72
2023-12-29T21:36:23.149Z,99699.16
2023-12-29T21:38:52.227Z,99697.53
2023-12-29T21:41:21.095Z,99697.31
2023-12-29T21:43:50.039Z,99697.28
2023-12-29T21:46:19.176Z,99699.06
2023-12-29T21:48:49.656Z,99704.97
2023-12-29T21:51:18.493Z,99700.69
2023-12-29T21:53:47.242Z,99695.31
2023-12-29T21:56:16.050Z,99688.38
2023-12-29T21:58:46.789Z,99691.63
2023-12-29T22:01:35.968Z,99686.66
2023-12-29T22:04:09.968Z,99685.06
2023-12-29T22:06:42.079Z,99672.09
2023-12-29T22:09:11.294Z,99688.13
2023-12-29T22:11:40.054Z,99681.44
2023-12-29T22:14:08.876Z,99677.06
2023-12-29T22:16:37.702Z,99674.25
2023-12-29T22:19:08.162Z,99679.19
2023-12-29T22:21:37.504Z,99679.09
2023-12-29T22:24:06.556Z,99675.03
2023-12-29T22:26:35.836Z,99670.75
2023-12-29T22:29:04.564Z,99675.41
2023-12-29T22:31:34.491Z,99673.41
2023-12-29T22:34:04.020Z,99664.88
2023-12-29T22:36:34.267Z,99674.84
2023-12-29T22:39:03.142Z,99671.53
2023-12-29T22:41:31.860Z,99655.50
2023-12-29T22:44:00.726Z,99664.69
2023-12-29T22:46:29.874Z,99648.50
2023-12-29T22:48:58.860Z,99656.94
2023-12-29T22:51:30.314Z,99659.44
2023-12-29T22:54:01.006Z,99656.03
2023-12-29T22:56:29.871Z,99652.50
2023-12-29T22:58:58.549Z,99654.88
2023-12-29T23:01:27.407Z,99655.94
2023-12-29T23:03:56.152Z,99652.41
2023-12-29T23:06:24.951Z,99658.19
2023-12-29T23:08:53.654Z,99664.78
2023-12-29T23:11:23.834Z,99654.38
2023-12-29T23:13:52.598Z,99642.88
2023-12-29T23:16:21.455Z,99635.59
2023-12-29T23:18:50.736Z,99631.47
2023-12-29T23:21:19.752Z,99628.66
2023-12-29T23:23:48.668Z,99634.34
2023-12-29T23:26:17.428Z,99631.81
2023-12-29T23:28:47.723Z,99639.03
2023-12-29T23:31:18.690Z,99643.28
2023-12-29T23:33:47.809Z,99641.72
2023-12-29T23:36:17.202Z,99638.34
2023-12-29T23:38:46.162Z,99643.50
2023-12-29T23:41:18.955Z,99633.34
2023-12-29T23:43:50.748Z,99642.66
2023-12-29T23:46:19.721Z,99636.13
2023-12-29T23:48:48.555Z,99636.16
2023-12-29T23:51:17.746Z,99631.88
2023-12-29T23:53:47.582Z,99628.56
2023-12-29T23:56:16.747Z,99627.72
2023-12-29T23:58:48.878Z,99626.78
